Air Navigation Services of Czech Republic
Airport: LKNA Updated:  20.02.2017 20:06:06  UTC
 METAR LKNA 20.02. 20:00 ...
METAR LKNA 202000Z 23009KT 9999 -RA SCT031 BKN060 03/01 Q1014 NOSIG=
 TAF LKNA 20.02. 17:00 ...
TAF LKNA 201700Z 2018/2118 22010KT 9999 BKN040      TEMPO 2022/2118 4000 RA BR OVC010      BECMG 2100/2102 28016G26KT=